createdAt,value
2019-04-16T09:35:08.073Z,42.80
2019-04-16T09:37:28.684Z,43.30
2019-04-16T09:40:16.414Z,43.20
2019-04-16T09:42:34.947Z,41.50
2019-04-16T09:46:25.017Z,84.20
2019-04-16T09:48:49.866Z,49.20
2019-04-16T09:51:18.691Z,47.00
2019-04-16T09:53:43.286Z,45.10
2019-04-16T09:56:30.027Z,45.40
2019-04-16T09:58:59.770Z,41.70
2019-04-16T10:01:27.882Z,43.80
2019-04-16T10:03:55.093Z,39.10
2019-04-16T10:06:21.363Z,40.80
2019-04-16T10:08:47.440Z,42.50
2019-04-16T10:11:18.040Z,42.40
2019-04-16T10:13:42.977Z,38.50
2019-04-16T10:16:09.393Z,37.30
2019-04-16T10:18:36.029Z,38.30
2019-04-16T10:21:02.192Z,39.40
2019-04-16T10:23:36.211Z,39.20
2019-04-16T10:26:02.791Z,40.00
2019-04-16T10:28:39.854Z,37.10
2019-04-16T10:31:06.241Z,37.20
2019-04-16T10:33:32.392Z,37.10
2019-04-16T10:36:01.094Z,38.90
2019-04-16T10:38:31.024Z,38.50
2019-04-16T10:40:59.739Z,39.00
2019-04-16T10:43:45.111Z,40.20
2019-04-16T10:46:16.296Z,40.20
2019-04-16T10:48:50.461Z,36.60
2019-04-16T10:51:19.375Z,37.20
2019-04-16T10:53:53.546Z,37.30
2019-04-16T10:56:33.804Z,36.60
2019-04-16T10:59:18.508Z,34.70
2019-04-16T11:01:46.561Z,36.80
2019-04-16T11:04:17.845Z,37.00
2019-04-16T11:06:45.907Z,36.40
2019-04-16T11:09:12.015Z,35.20
2019-04-16T11:11:38.151Z,35.20
2019-04-16T11:14:04.216Z,37.00
2019-04-16T11:16:30.558Z,36.00
2019-04-16T11:18:56.676Z,35.00
2019-04-16T11:21:22.861Z,36.00
2019-04-16T11:23:49.121Z,37.10
2019-04-16T11:26:15.378Z,36.20
2019-04-16T11:28:41.606Z,36.70
2019-04-16T11:31:12.739Z,35.10
2019-04-16T11:33:38.964Z,36.80
2019-04-16T11:36:17.389Z,35.50
2019-04-16T11:38:33.065Z,36.60
2019-04-16T11:40:59.296Z,35.50
2019-04-16T11:43:25.799Z,36.00
2019-04-16T11:45:52.129Z,35.90
2019-04-16T11:48:18.318Z,35.00
2019-04-16T11:50:44.496Z,35.90
2019-04-16T11:55:37.194Z,34.10
2019-04-16T11:58:05.240Z,33.60
2019-04-16T12:00:33.273Z,33.10
2019-04-16T12:03:01.338Z,32.50
2019-04-16T12:05:41.485Z,34.70
2019-04-16T12:08:09.665Z,34.70
2019-04-16T12:10:44.074Z,33.30
2019-04-16T12:13:12.322Z,34.10
2019-04-16T12:15:56.808Z,30.70
2019-04-16T12:18:27.620Z,33.30
2019-04-16T12:20:55.833Z,32.80
2019-04-16T12:23:23.971Z,33.00
2019-04-16T12:26:09.721Z,34.60
2019-04-16T12:28:42.331Z,34.40
2019-04-16T12:31:16.211Z,31.50
2019-04-16T12:33:43.068Z,33.30
2019-04-16T12:36:17.215Z,32.60
2019-04-16T12:38:45.302Z,33.20
2019-04-16T12:41:13.400Z,32.40
2019-04-16T12:43:41.424Z,33.00
2019-04-16T12:46:21.528Z,33.00
2019-04-16T12:48:49.668Z,33.20
2019-04-16T12:51:21.119Z,32.80
2019-04-16T12:53:53.062Z,31.10
2019-04-16T12:59:15.198Z,37.20
2019-04-16T13:01:49.461Z,33.40
2019-04-16T13:04:23.428Z,33.60
2019-04-16T13:06:54.426Z,34.10
2019-04-16T13:09:31.477Z,33.30
2019-04-16T13:12:17.861Z,33.40
2019-04-16T13:14:59.935Z,32.70
2019-04-16T13:17:24.972Z,32.30
2019-04-16T13:19:55.952Z,32.00
2019-04-16T13:22:40.593Z,30.90
2019-04-16T13:25:12.105Z,31.00
2019-04-16T13:27:39.736Z,30.70
2019-04-16T13:30:08.641Z,32.60
2019-04-16T13:32:34.852Z,32.70
2019-04-16T13:35:01.032Z,30.50
2019-04-16T18:18:09.743Z,26.70
2019-04-16T18:20:58.665Z,27.00
2019-04-16T18:23:22.036Z,26.70
2019-04-16T18:26:06.585Z,26.70
2019-04-16T18:28:34.742Z,26.70
2019-04-16T18:31:23.404Z,26.90
2019-04-16T18:33:50.898Z,27.50
2019-04-16T18:36:18.920Z,27.40
2019-04-16T18:38:47.008Z,27.20
2019-04-16T18:41:30.184Z,27.50
2019-04-16T18:44:01.047Z,27.20
2019-04-16T18:46:35.353Z,27.80
2019-04-16T18:49:14.346Z,27.80
2019-04-16T18:51:51.511Z,28.00
2019-04-16T18:54:18.110Z,28.50
2019-04-16T18:56:44.207Z,28.10
2019-04-16T18:59:11.150Z,28.60
2019-04-16T19:01:39.620Z,28.60
2019-04-16T19:04:06.735Z,28.70
2019-04-16T19:06:34.176Z,28.90
2019-04-16T19:09:00.390Z,29.20
2019-04-16T19:11:26.624Z,29.00
2019-04-16T19:13:52.710Z,29.30
2019-04-16T19:16:18.920Z,29.10
2019-04-16T19:19:07.272Z,29.30
2019-04-16T19:21:33.424Z,29.10
2019-04-16T19:24:00.716Z,29.70
2019-04-16T19:26:30.275Z,29.40
2019-04-16T19:28:55.746Z,29.30
2019-04-16T19:31:23.060Z,29.30
2019-04-16T19:33:49.998Z,29.40
2019-04-16T19:36:16.076Z,29.10
2019-04-16T19:38:42.235Z,29.20
2019-04-16T19:41:08.348Z,29.20
2019-04-16T19:43:35.549Z,29.30
2019-04-16T19:46:02.117Z,29.40
2019-04-16T19:48:35.944Z,29.50
2019-04-16T19:50:56.253Z,29.50
2019-04-16T19:53:22.325Z,29.50
2019-04-16T19:55:48.384Z,30.00
2019-04-16T19:58:14.692Z,30.00
2019-04-16T20:00:40.761Z,30.00
2019-04-16T20:03:07.147Z,30.30
2019-04-16T20:05:33.228Z,30.10
2019-04-16T20:07:59.300Z,30.00
2019-04-16T20:10:25.386Z,30.10
2019-04-16T20:12:51.533Z,30.00
2019-04-16T20:15:17.727Z,30.50
2019-04-16T20:17:43.864Z,30.40
2019-04-16T20:20:10.132Z,30.60
2019-04-16T20:22:36.292Z,30.70
2019-04-16T20:25:02.888Z,30.70
2019-04-16T20:27:28.986Z,30.60
2019-04-16T20:29:55.372Z,30.80
2019-04-16T20:32:22.020Z,30.90
2019-04-16T20:34:48.098Z,30.50
2019-04-16T20:37:14.292Z,30.40
2019-04-16T20:39:40.906Z,31.10
2019-04-16T20:42:07.143Z,30.90
2019-04-16T20:44:33.214Z,31.60
2019-04-16T20:47:03.497Z,31.80
2019-04-16T20:49:27.365Z,31.60
2019-04-16T20:51:56.540Z,31.80
2019-04-16T20:54:22.511Z,31.90
2019-04-16T20:56:50.040Z,32.00
2019-04-16T20:59:16.687Z,31.90
2019-04-16T21:01:42.887Z,32.10
2019-04-16T21:04:09.071Z,32.30
2019-04-16T21:06:40.516Z,32.30
2019-04-16T21:09:05.360Z,31.90
2019-04-16T21:11:31.451Z,31.80
2019-04-16T21:13:57.516Z,31.70
2019-04-16T21:16:23.768Z,31.70
2019-04-16T21:18:49.965Z,31.70
2019-04-16T21:21:16.033Z,31.80
2019-04-16T21:23:42.321Z,33.20
2019-04-16T21:26:08.436Z,32.20
2019-04-16T21:28:36.609Z,32.10
2019-04-16T21:31:07.795Z,32.20
2019-04-16T21:33:35.896Z,32.20
2019-04-16T21:36:05.197Z,32.20
2019-04-16T21:38:45.177Z,32.40
2019-04-16T21:41:10.992Z,32.30
2019-04-16T21:43:39.545Z,32.50
2019-04-16T21:46:05.462Z,32.60
2019-04-16T21:48:31.696Z,32.70
2019-04-16T21:50:57.791Z,32.80
2019-04-16T21:53:24.555Z,32.90
2019-04-16T21:55:52.068Z,33.10
2019-04-16T21:58:18.525Z,33.40
2019-04-16T22:00:52.850Z,33.20
2019-04-16T22:03:23.782Z,33.00
2019-04-16T22:05:49.993Z,33.30
2019-04-16T22:08:16.078Z,33.30
2019-04-16T22:10:42.186Z,33.20
2019-04-16T22:13:08.351Z,33.30
2019-04-16T22:15:34.517Z,33.30
2019-04-16T22:18:00.660Z,33.30
2019-04-16T22:20:26.754Z,33.60
2019-04-16T22:22:52.834Z,33.60
2019-04-16T22:25:18.947Z,33.60
2019-04-16T22:27:45.030Z,33.50
2019-04-16T22:30:11.324Z,33.80
2019-04-16T22:32:37.411Z,34.00
2019-04-16T22:35:04.797Z,34.10
2019-04-16T22:37:30.899Z,34.10
2019-04-16T22:40:14.000Z,34.10
2019-04-16T22:42:41.985Z,34.50
2019-04-16T22:45:26.203Z,34.70
2019-04-16T22:47:52.525Z,35.10
2019-04-16T22:50:18.624Z,36.00
2019-04-16T22:52:44.977Z,35.80
2019-04-16T22:55:12.224Z,35.70
2019-04-16T22:57:38.334Z,35.90
2019-04-16T23:00:11.746Z,36.00
2019-04-16T23:02:35.005Z,36.10
2019-04-16T23:05:01.246Z,37.00
2019-04-16T23:07:27.352Z,37.20
2019-04-16T23:09:53.632Z,37.30
2019-04-16T23:12:19.735Z,37.40
2019-04-16T23:14:45.826Z,37.30
2019-04-16T23:17:14.202Z,37.40
2019-04-16T23:19:40.115Z,37.30
2019-04-16T23:22:06.242Z,37.30
2019-04-16T23:24:32.392Z,37.30
2019-04-16T23:26:58.484Z,37.50
2019-04-16T23:29:24.586Z,37.40
2019-04-16T23:31:55.073Z,37.50
2019-04-16T23:34:18.772Z,37.40
2019-04-16T23:36:48.648Z,37.50
2019-04-16T23:39:12.854Z,37.50
2019-04-16T23:41:38.946Z,37.80
2019-04-16T23:44:13.129Z,37.80
2019-04-16T23:46:56.247Z,37.80
2019-04-16T23:49:42.455Z,38.10
2019-04-16T23:52:10.623Z,37.90
2019-04-16T23:54:44.051Z,38.10
2019-04-16T23:57:11.029Z,38.60
2019-04-16T23:59:42.037Z,39.50
